Time;durP1;ratioP1;P1;durP2;ratioP2;P2;SDS_P1;SDS_P2;PMS_P1;PMS_P2;Temp;Humidity;BMP_temperature;BMP_pressure;BME280_temperature;BME280_humidity;BME280_pressure;Samples;Min_cycle;Max_cycle;Signal;HPM_P1;HPM_P2
2022/01/22 00:01:54;;;;;;;5.00;3.15;;;;;;;-4.73;100.00;60314.38;5112993;28;20325;-77
2022/01/22 00:07:06;;;;;;;5.75;2.65;;;;;;;-4.61;100.00;60332.00;5112363;28;20293;-77
2022/01/22 00:09:39;;;;;;;6.38;2.30;;;;;;;-4.62;100.00;60325.97;5112965;28;20195;-75
2022/01/22 00:12:11;;;;;;;5.47;2.50;;;;;;;-3.85;100.00;60406.09;5112886;28;20634;-75
2022/01/22 00:14:43;;;;;;;9.73;2.53;;;;;;;-3.75;100.00;60416.66;5095578;28;20529;-75
2022/01/22 00:17:12;;;;;;;4.15;2.30;;;;;;;-3.82;100.00;60404.31;5113263;28;20441;-76
2022/01/22 00:19:51;;;;;;;6.37;2.23;;;;;;;-3.90;100.00;60396.38;5113003;28;20195;-76
2022/01/22 00:22:25;;;;;;;6.13;2.80;;;;;;;-3.91;100.00;60400.31;5092057;28;20477;-76
2022/01/22 00:25:02;;;;;;;5.95;2.80;;;;;;;-5.50;100.00;60238.22;5113203;28;20425;-76
2022/01/22 00:27:33;;;;;;;5.80;2.70;;;;;;;-4.54;100.00;60331.91;5095393;28;20601;-75
2022/01/22 00:30:00;;;;;;;4.80;2.30;;;;;;;-4.22;100.00;60372.56;5112626;28;20481;-76
2022/01/22 00:32:32;;;;;;;10.02;2.60;;;;;;;-3.80;100.00;60411.41;5112743;28;20251;-75
2022/01/22 00:34:59;;;;;;;5.10;2.35;;;;;;;-5.18;100.00;60264.50;5112535;28;20203;-77
2022/01/22 00:37:26;;;;;;;7.13;2.58;;;;;;;-5.53;100.00;60232.59;5112359;28;20288;-74
2022/01/22 00:39:57;;;;;;;4.13;1.73;;;;;;;-4.72;100.00;60314.91;5112581;28;20195;-75
2022/01/22 00:42:31;;;;;;;4.15;2.33;;;;;;;-3.80;100.00;60411.91;5112123;28;20227;-75
2022/01/22 00:45:00;;;;;;;6.60;2.92;;;;;;;-5.14;100.00;60266.22;5112512;28;20216;-76
2022/01/22 00:47:29;;;;;;;6.35;2.40;;;;;;;-3.79;100.00;60407.47;5112869;28;20198;-77
2022/01/22 00:49:56;;;;;;;4.10;2.33;;;;;;;-3.89;100.00;60401.88;5094198;28;20199;-75
2022/01/22 00:52:27;;;;;;;5.77;2.60;;;;;;;-3.78;100.00;60416.00;5112130;28;20223;-76
2022/01/22 00:54:54;;;;;;;3.88;2.50;;;;;;;-3.83;100.00;60403.25;5112527;28;20457;-74
2022/01/22 00:57:25;;;;;;;4.90;2.40;;;;;;;-3.75;100.00;60414.16;5112686;28;20199;-75
2022/01/22 00:59:54;;;;;;;7.38;2.50;;;;;;;-3.84;100.00;60407.19;5112152;28;20203;-74
2022/01/22 01:02:22;;;;;;;2.58;1.63;;;;;;;-3.87;100.00;60404.53;5112585;28;20284;-74
2022/01/22 01:04:52;;;;;;;6.32;2.88;;;;;;;-3.78;100.00;60413.50;5111997;28;20199;-76
2022/01/22 01:07:18;;;;;;;5.22;2.42;;;;;;;-3.75;100.00;60417.19;5112637;28;20233;-75
2022/01/22 01:09:50;;;;;;;6.10;2.78;;;;;;;-4.76;100.00;60311.22;5114111;28;20203;-74
2022/01/22 01:12:18;;;;;;;5.50;2.58;;;;;;;-3.84;100.00;60402.72;5112584;28;20191;-75
2022/01/22 01:14:52;;;;;;;2.83;2.10;;;;;;;-3.92;100.00;60398.75;5094212;28;20198;-75
2022/01/22 01:17:46;;;;;;;7.47;2.50;;;;;;;-3.87;100.00;60399.03;5112880;28;20202;-76
2022/01/22 01:34:18;;;;;;;3.05;1.50;;;;;;;-5.50;100.00;60230.78;5113475;28;20249;-74
2022/01/22 01:36:47;;;;;;;5.78;2.63;;;;;;;-5.19;100.00;60263.44;5112520;28;20282;-73
2022/01/22 01:39:19;;;;;;;4.70;2.30;;;;;;;-3.79;100.00;60412.97;5112136;28;20627;-76
2022/01/22 01:41:59;;;;;;;2.53;1.52;;;;;;;-5.63;100.00;60219.59;5111936;28;20546;-76
2022/01/22 01:44:27;;;;;;;3.47;1.85;;;;;;;-3.85;100.00;60406.09;5111721;28;20205;-73
2022/01/22 01:46:57;;;;;;;5.30;2.00;;;;;;;-3.76;100.00;60415.63;5111208;28;20206;-76
2022/01/22 01:49:35;;;;;;;6.22;2.33;;;;;;;-3.72;100.00;60420.34;5115498;28;20206;-74
2022/01/22 01:52:16;;;;;;;2.13;1.70;;;;;;;-3.80;100.00;60411.91;5116292;28;20191;-75
2022/01/22 01:55:01;;;;;;;3.30;1.90;;;;;;;-4.12;100.00;60378.16;5115779;28;20202;-75
2022/01/22 01:57:38;;;;;;;4.15;2.00;;;;;;;-3.69;100.00;60418.00;5115486;28;20587;-74
2022/01/22 02:00:12;;;;;;;3.67;1.85;;;;;;;-3.75;100.00;60416.66;5115472;28;20203;-77
2022/01/22 02:02:41;;;;;;;4.90;2.00;;;;;;;-3.82;100.00;60411.78;5081435;28;20241;-74
2022/01/22 02:05:20;;;;;;;4.88;1.30;;;;;;;-5.01;100.00;60274.97;5097343;28;20263;-74
2022/01/22 02:07:54;;;;;;;6.72;1.90;;;;;;;-3.75;100.00;60416.66;5115295;28;20667;-74
2022/01/22 02:10:25;;;;;;;5.80;1.95;;;;;;;-3.82;100.00;60406.78;5113864;28;20195;-74
2022/01/22 02:24:16;;;;;;;3.63;1.80;;;;;;;-5.01;100.00;60289.31;5115538;28;20197;-73
2022/01/22 02:27:02;;;;;;;5.00;1.97;;;;;;;-3.66;100.00;60426.69;5114643;28;20190;-75
2022/01/22 02:29:30;;;;;;;3.45;1.83;;;;;;;-3.72;100.00;60419.84;5115062;28;20441;-75
2022/01/22 02:32:23;;;;;;;3.47;1.80;;;;;;;-4.84;100.00;60297.81;5115206;28;20198;-76
2022/01/22 02:34:55;;;;;;;5.50;2.13;;;;;;;-3.73;100.00;60421.25;5115081;28;20240;-76
2022/01/22 02:37:34;;;;;;;5.28;2.35;;;;;;;-3.72;100.00;60420.34;5115149;28;20443;-73
2022/01/22 02:40:09;;;;;;;10.80;1.90;;;;;;;-4.99;100.00;60287.00;5112377;28;20219;-75
2022/01/22 02:42:37;;;;;;;6.10;1.80;;;;;;;-3.81;100.00;60405.88;5096867;28;20258;-75
2022/01/22 02:45:10;;;;;;;3.40;1.85;;;;;;;-3.68;100.00;60424.06;5096649;28;20198;-74
2022/01/22 02:48:04;;;;;;;8.53;1.80;;;;;;;-3.59;100.00;60433.53;5114705;28;20658;-75
2022/01/22 02:50:34;;;;;;;2.42;1.52;;;;;;;-3.47;100.00;60446.19;5115257;28;20461;-74
2022/01/22 02:53:10;;;;;;;6.70;2.17;;;;;;;-5.36;100.00;60248.00;5116087;28;20230;-75
2022/01/22 02:55:42;;;;;;;4.40;1.97;;;;;;;-3.61;100.00;60427.00;5097823;28;20205;-75
2022/01/22 02:58:15;;;;;;;5.60;2.17;;;;;;;-3.81;100.00;60412.81;5096964;28;20529;-75
2022/01/22 03:00:46;;;;;;;4.05;1.73;;;;;;;-3.92;100.00;60398.75;5115086;28;20689;-74
2022/01/22 03:03:20;;;;;;;8.13;1.80;;;;;;;-4.31;100.00;60358.13;5118579;28;20659;-75
2022/01/22 03:05:54;;;;;;;5.50;1.95;;;;;;;-3.87;100.00;60404.00;5114886;28;20203;-74
2022/01/22 03:08:28;;;;;;;4.28;1.85;;;;;;;-3.97;100.00;60393.97;5114821;28;20226;-75
2022/01/22 03:10:56;;;;;;;4.07;2.08;;;;;;;-5.05;100.00;60280.13;5114281;28;20635;-75
2022/01/22 03:16:27;;;;;;;4.97;1.80;;;;;;;-4.43;100.00;60346.00;5114388;28;20569;-73
2022/01/22 03:19:00;;;;;;;3.40;1.60;;;;;;;-4.09;100.00;60380.78;5115610;28;20285;-75
2022/01/22 03:21:42;;;;;;;3.65;1.85;;;;;;;-4.03;100.00;60387.13;5114481;28;20199;-74
2022/01/22 03:29:58;;;;;;;5.15;1.92;;;;;;;-3.98;100.00;60397.91;5026295;28;20501;-74
2022/01/22 03:32:31;;;;;;;6.72;2.58;;;;;;;-3.94;100.00;60397.13;5079599;28;20199;-75
2022/01/22 03:35:10;;;;;;;6.82;2.13;;;;;;;-3.84;100.00;60407.19;5113861;28;20588;-73
2022/01/22 03:37:52;;;;;;;3.03;1.40;;;;;;;-4.15;100.00;60375.00;5112726;28;20209;-75
2022/01/22 03:40:25;;;;;;;4.45;1.60;;;;;;;-3.83;100.00;60411.25;5113984;28;20380;-73
2022/01/22 03:42:56;;;;;;;6.10;2.00;;;;;;;-3.83;100.00;60405.72;5119758;28;20562;-75
2022/01/22 03:45:28;;;;;;;4.47;1.90;;;;;;;-4.02;100.00;60393.16;5114046;28;20286;-74
2022/01/22 03:47:55;;;;;;;4.72;1.88;;;;;;;-4.81;100.00;60302.94;5113612;28;20201;-75
2022/01/22 03:50:25;;;;;;;4.60;2.27;;;;;;;-3.75;100.00;60417.19;5113772;28;20199;-75
2022/01/22 03:52:53;;;;;;;5.73;2.30;;;;;;;-3.85;100.00;60406.63;5113036;28;20905;-76
2022/01/22 03:55:45;;;;;;;4.97;1.65;;;;;;;-4.28;100.00;60366.78;5113666;28;20429;-75
2022/01/22 03:58:14;;;;;;;2.95;1.48;;;;;;;-3.99;100.00;60391.34;5113879;28;20195;-75
2022/01/22 04:00:47;;;;;;;6.57;2.00;;;;;;;-4.24;100.00;60365.00;5113476;28;20199;-75
2022/01/22 04:03:31;;;;;;;3.85;1.70;;;;;;;-3.82;100.00;60409.78;5113613;28;20235;-74
2022/01/22 04:11:24;;;;;;;2.85;1.42;;;;;;;-4.14;100.00;60370.56;5112503;28;20436;-75
2022/01/22 04:13:57;;;;;;;4.38;1.90;;;;;;;-3.89;100.00;60401.88;5113311;28;20218;-76
2022/01/22 04:16:29;;;;;;;4.15;2.00;;;;;;;-3.75;100.00;60416.66;5095281;28;20237;-75
2022/01/22 04:27:22;;;;;;;8.43;2.00;;;;;;;-5.06;100.00;60274.66;5113342;28;20205;-76
2022/01/22 04:29:50;;;;;;;4.65;1.52;;;;;;;-4.06;100.00;60383.97;5112891;28;20214;-74
2022/01/22 04:32:19;;;;;;;6.10;2.17;;;;;;;-4.98;100.00;60288.03;5094354;28;20209;-75
2022/01/22 04:34:51;;;;;;;3.70;1.67;;;;;;;-5.65;100.00;60222.44;5112576;28;20544;-75
2022/01/22 04:37:20;;;;;;;4.60;1.67;;;;;;;-3.79;100.00;60410.47;5112855;28;20203;-75
2022/01/22 04:39:51;;;;;;;3.35;1.85;;;;;;;-4.10;100.00;60382.25;5112315;28;20230;-74
2022/01/22 04:42:21;;;;;;;3.30;1.80;;;;;;;-4.16;100.00;60376.41;5112320;28;20283;-75
2022/01/22 04:44:56;;;;;;;4.60;1.90;;;;;;;-3.87;100.00;60406.50;5112530;28;20605;-74
2022/01/22 04:47:35;;;;;;;10.00;1.90;;;;;;;-3.69;100.00;60423.00;5112874;28;20195;-75
2022/01/22 04:55:43;;;;;;;11.27;3.90;;;;;;;-3.84;100.00;60407.19;5094528;28;20210;-73
2022/01/22 04:58:17;;;;;;;8.93;3.72;;;;;;;-4.56;100.00;60334.78;5112492;28;20263;-74
2022/01/22 05:00:47;;;;;;;13.95;4.13;;;;;;;-3.87;100.00;60404.00;5112554;28;20210;-75
2022/01/22 05:03:16;;;;;;;8.75;4.15;;;;;;;-3.93;100.00;60397.66;5112917;28;20227;-78
2022/01/22 05:05:45;;;;;;;7.72;4.25;;;;;;;-4.09;100.00;60375.81;5112304;28;20550;-76
2022/01/22 05:08:16;;;;;;;8.50;3.93;;;;;;;-4.22;100.00;60372.06;5111936;28;20252;-75
2022/01/22 05:10:45;;;;;;;10.27;4.07;;;;;;;-4.83;100.00;60303.84;5112201;28;20838;-77
2022/01/22 05:13:24;;;;;;;9.25;3.97;;;;;;;-4.12;100.00;60378.16;5094091;28;20516;-75
2022/01/22 05:15:51;;;;;;;9.87;3.77;;;;;;;-4.06;100.00;60379.00;5112340;28;20264;-76
2022/01/22 05:18:18;;;;;;;7.50;3.53;;;;;;;-5.13;100.00;60277.22;5112071;28;20437;-77
2022/01/22 05:20:51;;;;;;;6.50;3.40;;;;;;;-4.10;100.00;60379.75;5113055;28;20536;-75
2022/01/22 05:23:22;;;;;;;10.40;4.32;;;;;;;-4.75;100.00;60306.78;5114023;28;20226;-74
2022/01/22 05:25:55;;;;;;;8.57;4.27;;;;;;;-4.63;100.00;60324.94;5115666;28;20203;-76
2022/01/22 05:31:23;;;;;;;17.60;8.02;;;;;;;-3.88;100.00;60405.44;5116717;28;20299;-75
2022/01/22 05:37:00;;;;;;;10.77;4.97;;;;;;;-3.83;100.00;60403.25;5116504;28;20320;-74
2022/01/22 05:39:28;;;;;;;9.43;4.07;;;;;;;-4.39;100.00;60347.22;5115903;28;20199;-76
2022/01/22 05:41:57;;;;;;;9.15;3.75;;;;;;;-4.03;100.00;60387.13;5115692;28;20271;-75
2022/01/22 05:44:35;;;;;;;11.00;4.38;;;;;;;-4.44;100.00;60342.47;5115865;28;20237;-77
2022/01/22 05:47:05;;;;;;;8.65;4.40;;;;;;;-4.42;100.00;60347.06;5116068;28;20206;-77
2022/01/22 05:49:37;;;;;;;14.05;4.57;;;;;;;-6.07;100.00;60168.84;5115522;28;20594;-75
2022/01/22 05:52:09;;;;;;;30.45;9.00;;;;;;;-4.58;100.00;60330.19;5118153;28;20199;-76
2022/01/22 05:55:06;;;;;;;13.38;5.93;;;;;;;-4.79;100.00;60308.06;5117649;28;20206;-74
2022/01/22 06:00:26;;;;;;;20.20;6.45;;;;;;;-4.66;100.00;60316.78;5116065;28;20224;-76
2022/01/22 06:02:53;;;;;;;17.63;7.35;;;;;;;-4.84;100.00;60297.28;5115829;28;20304;-75
2022/01/22 06:05:24;;;;;;;29.77;10.88;;;;;;;-4.91;100.00;60290.47;5116088;28;20571;-74
2022/01/22 06:07:52;;;;;;;25.83;8.70;;;;;;;-6.06;100.00;60175.41;5116381;28;20199;-76
2022/01/22 06:10:26;;;;;;;46.10;13.63;;;;;;;-4.80;100.00;60307.00;5115399;28;20203;-75
2022/01/22 06:13:10;;;;;;;40.33;13.02;;;;;;;-4.68;100.00;60319.66;5115437;28;20205;-74
2022/01/22 06:15:50;;;;;;;27.20;9.13;;;;;;;-5.60;100.00;60225.75;5115277;28;20195;-74
2022/01/22 06:18:19;;;;;;;14.68;6.03;;;;;;;-5.57;100.00;60220.94;5115623;28;20661;-75
2022/01/22 06:20:46;;;;;;;15.65;6.30;;;;;;;-4.38;100.00;60350.75;5115323;28;20199;-73
2022/01/22 06:23:20;;;;;;;9.45;4.78;;;;;;;-4.40;100.00;60344.19;5115142;28;20226;-76
2022/01/22 06:25:51;;;;;;;11.98;5.68;;;;;;;-4.23;100.00;60366.56;5115234;28;20747;-73
2022/01/22 06:28:19;;;;;;;19.48;7.30;;;;;;;-4.03;100.00;60387.13;5115437;28;20191;-75
2022/01/22 06:30:48;;;;;;;13.60;6.25;;;;;;;-3.91;100.00;60394.81;5115700;28;20195;-74
2022/01/22 06:33:15;;;;;;;12.43;5.13;;;;;;;-4.25;100.00;60363.94;5114489;28;20207;-76
2022/01/22 06:35:43;;;;;;;8.90;4.43;;;;;;;-4.08;100.00;60382.38;5114485;28;20693;-76
2022/01/22 06:38:10;;;;;;;11.05;4.90;;;;;;;-3.92;100.00;60398.75;5096812;28;20198;-74
2022/01/22 06:43:22;;;;;;;16.30;6.03;;;;;;;-4.15;100.00;60372.50;5115549;28;20826;-76
2022/01/22 06:45:51;;;;;;;23.85;8.15;;;;;;;-5.06;100.00;60269.16;5114894;28;20441;-75
2022/01/22 06:48:21;;;;;;;21.73;8.85;;;;;;;-4.15;100.00;60370.03;5096643;28;20199;-76
2022/01/22 06:50:49;;;;;;;704.63;173.52;;;;;;;-4.21;100.00;60365.66;5115031;28;20596;-73
2022/01/22 06:53:19;;;;;;;192.23;38.88;;;;;;;-4.43;100.00;60343.00;5114222;28;20622;-75
2022/01/22 06:55:53;;;;;;;116.78;28.20;;;;;;;-5.13;100.00;60271.72;5114908;28;20191;-73
2022/01/22 06:58:20;;;;;;;170.77;39.60;;;;;;;-4.11;100.00;60378.69;5115861;28;20191;-74
2022/01/22 07:00:47;;;;;;;62.97;19.52;;;;;;;-3.96;100.00;60395.03;5114683;28;20267;-74
2022/01/22 07:03:19;;;;;;;32.10;13.95;;;;;;;-5.56;100.00;60226.94;5114145;28;20230;-75
2022/01/22 07:05:47;;;;;;;48.00;19.33;;;;;;;-3.94;100.00;60391.66;5114564;28;20323;-76
2022/01/22 07:08:15;;;;;;;47.90;17.47;;;;;;;-5.40;100.00;60238.84;5114347;28;21016;-75
2022/01/22 07:10:43;;;;;;;31.17;13.37;;;;;;;-4.03;100.00;60387.66;5114774;28;20441;-74
2022/01/22 07:13:10;;;;;;;36.53;11.93;;;;;;;-3.87;100.00;60404.00;5113557;28;20860;-75
2022/01/22 07:15:38;;;;;;;53.37;17.87;;;;;;;-5.03;100.00;60277.81;5114035;28;20199;-74
2022/01/22 07:18:05;;;;;;;27.77;12.18;;;;;;;-5.44;100.00;60240.13;5114288;28;20449;-74
2022/01/22 07:20:38;;;;;;;29.88;12.82;;;;;;;-4.58;100.00;60330.19;5114757;28;20199;-75
2022/01/22 07:23:16;;;;;;;23.33;8.93;;;;;;;-4.05;100.00;60385.00;5114122;28;20234;-75
2022/01/22 07:25:46;;;;;;;20.15;9.00;;;;;;;-3.56;100.00;60436.72;5115088;28;20230;-76
2022/01/22 07:28:16;;;;;;;15.73;7.40;;;;;;;-2.97;100.00;60493.47;5114095;28;20195;-76
2022/01/22 07:30:48;;;;;;;15.27;7.87;;;;;;;-4.11;100.00;60378.69;5113933;28;20451;-73
2022/01/22 07:33:17;;;;;;;16.48;7.15;;;;;;;-2.85;100.00;60506.16;5110519;28;20971;-77
2022/01/22 07:35:49;;;;;;;19.37;7.37;;;;;;;-1.03;100.00;60703.03;5113702;28;20203;-74
2022/01/22 07:38:16;;;;;;;16.77;7.60;;;;;;;-0.86;100.00;60716.00;5113655;28;20830;-75
2022/01/22 07:40:43;;;;;;;12.90;7.33;;;;;;;-0.88;100.00;60718.34;5113601;28;20441;-73
2022/01/22 07:43:10;;;;;;;15.40;7.80;;;;;;;-0.83;100.00;60723.13;5113419;28;20820;-77
2022/01/22 07:45:38;;;;;;;15.63;6.30;;;;;;;-0.76;100.00;60730.53;5112636;28;20438;-74
2022/01/22 07:48:07;;;;;;;26.70;8.33;;;;;;;-0.83;100.00;60715.63;5113276;28;21010;-73
2022/01/22 07:50:35;;;;;;;15.20;7.80;;;;;;;-0.74;100.00;60730.66;5113505;28;20460;-76
2022/01/22 07:53:05;;;;;;;16.07;7.60;;;;;;;-0.46;100.00;60757.28;5095520;28;20467;-75
2022/01/22 07:55:33;;;;;;;18.07;8.70;;;;;;;-0.20;100.00;60789.84;5113391;28;20437;-75
2022/01/22 07:58:00;;;;;;;18.50;8.50;;;;;;;-0.28;100.00;60778.84;5113568;28;20468;-76
2022/01/22 08:00:27;;;;;;;21.03;8.77;;;;;;;-0.29;100.00;60780.81;5113134;28;21072;-76
2022/01/22 08:02:55;;;;;;;16.37;8.50;;;;;;;-0.37;100.00;60771.81;5114368;28;20525;-77
2022/01/22 08:05:24;;;;;;;15.30;7.80;;;;;;;-0.46;100.00;60762.28;5114678;28;20488;-74
2022/01/22 08:07:51;;;;;;;17.83;7.53;;;;;;;-1.85;100.00;60611.81;5113187;28;20896;-75
2022/01/22 08:10:20;;;;;;;17.13;7.37;;;;;;;-0.81;100.00;60720.22;5112846;28;20954;-74
2022/01/22 08:12:51;;;;;;;19.23;8.07;;;;;;;-0.70;100.00;60732.41;5113143;28;20433;-74
2022/01/22 08:15:21;;;;;;;14.00;7.40;;;;;;;-0.51;100.00;60757.00;5112878;28;20931;-75
2022/01/22 08:17:48;;;;;;;21.70;8.13;;;;;;;-0.58;100.00;60749.59;5112710;28;20958;-72
2022/01/22 08:20:16;;;;;;;21.03;8.27;;;;;;;-1.74;100.00;60627.91;5112584;28;20502;-76
2022/01/22 08:22:45;;;;;;;23.27;10.33;;;;;;;-1.79;100.00;60622.63;5112895;28;20453;-76
2022/01/22 08:25:15;;;;;;;12.27;4.13;;;;;;;-0.80;100.00;60726.31;5112626;28;20480;-74
2022/01/22 08:30:28;;;;;;;8.23;3.27;;;;;;;-1.07;100.00;60698.25;5111951;28;20433;-73
2022/01/22 08:33:30;;;;;;;8.33;3.27;;;;;;;-2.43;100.00;60557.47;5112808;28;20502;-75
2022/01/22 08:35:55;;;;;;;6.27;3.50;;;;;;;-1.30;100.00;60674.44;5112509;28;20443;-74
2022/01/22 08:38:30;;;;;;;11.63;5.27;;;;;;;-1.02;100.00;60703.53;5094181;28;20448;-76
2022/01/22 08:41:07;;;;;;;7.77;3.60;;;;;;;-1.06;100.00;60697.34;5113011;28;20505;-75
2022/01/22 08:44:07;;;;;;;5.07;2.13;;;;;;;-1.40;100.00;60663.31;5112730;28;20437;-78
2022/01/22 08:46:35;;;;;;;6.73;3.10;;;;;;;-2.62;100.00;60535.97;5112687;28;20978;-75
2022/01/22 08:49:04;;;;;;;3.70;2.83;;;;;;;-1.41;100.00;60662.81;5112435;28;20502;-75
2022/01/22 08:51:32;;;;;;;9.80;3.00;;;;;;;-1.32;100.00;60669.81;5112068;28;20452;-76
2022/01/22 08:54:01;;;;;;;5.60;2.00;;;;;;;-2.24;100.00;60575.03;5094060;28;20464;-75
2022/01/22 08:56:28;;;;;;;4.53;2.80;;;;;;;-1.55;100.00;60650.50;5112062;28;20524;-74
2022/01/22 08:58:56;;;;;;;8.80;2.77;;;;;;;-1.54;100.00;60649.06;5112428;28;20437;-75
2022/01/22 09:01:24;;;;;;;5.57;2.50;;;;;;;-1.30;100.00;60674.44;5112233;28;21028;-75
2022/01/22 09:03:53;;;;;;;9.27;2.80;;;;;;;-1.11;100.00;60697.06;5112584;28;20483;-76
2022/01/22 09:06:22;;;;;;;7.13;2.90;;;;;;;-1.93;100.00;60607.81;5113318;28;20466;-75
2022/01/22 09:08:59;;;;;;;5.70;2.50;;;;;;;-0.98;100.00;60710.78;5112135;28;20947;-75
2022/01/22 09:11:26;;;;;;;5.80;2.03;;;;;;;-1.14;100.00;60691.38;5094086;28;20452;-76
2022/01/22 09:13:53;;;;;;;2.33;1.50;;;;;;;-1.25;100.00;60681.69;5112416;28;20445;-75
2022/01/22 09:16:22;;;;;;;4.27;2.30;;;;;;;-1.53;100.00;60652.63;5111943;28;20459;-72
2022/01/22 09:18:53;;;;;;;4.83;2.53;;;;;;;-1.45;100.00;60658.59;5111706;28;20447;-74
2022/01/22 09:21:23;;;;;;;2.63;1.80;;;;;;;-2.72;100.00;60524.88;5112076;28;20544;-75
2022/01/22 09:23:52;;;;;;;2.30;1.47;;;;;;;-1.47;100.00;60661.47;5112935;28;20504;-76
2022/01/22 09:26:19;;;;;;;4.33;1.87;;;;;;;-2.67;100.00;60527.66;5111840;28;21083;-75
2022/01/22 09:28:47;;;;;;;3.53;2.17;;;;;;;-1.48;100.00;60654.88;5111767;28;20448;-74
2022/01/22 09:31:14;;;;;;;3.80;2.13;;;;;;;-1.73;100.00;60629.47;5111130;28;20453;-75
2022/01/22 09:33:43;;;;;;;6.50;2.60;;;;;;;-1.48;100.00;60650.41;5093703;28;20444;-77
2022/01/22 09:36:10;;;;;;;14.90;2.03;;;;;;;-2.67;100.00;60533.16;5111790;28;20444;-74
2022/01/22 09:38:42;;;;;;;4.47;2.10;;;;;;;-2.72;100.00;60525.41;5111808;28;20429;-76
2022/01/22 09:41:11;;;;;;;2.63;1.43;;;;;;;-2.14;100.00;60590.59;5111843;28;20433;-75
2022/01/22 09:43:38;;;;;;;2.07;1.40;;;;;;;-2.74;100.00;60523.28;5111356;28;21012;-74
2022/01/22 09:48:50;;;;;;;3.80;2.03;;;;;;;-1.36;100.00;60673.09;5111789;28;20444;-77
2022/01/22 09:51:19;;;;;;;5.30;1.60;;;;;;;-1.60;100.00;60642.72;5112010;28;20521;-76
2022/01/22 09:53:50;;;;;;;3.17;1.53;;;;;;;-2.10;100.00;60587.34;5111790;28;20491;-75
2022/01/22 09:56:20;;;;;;;4.37;2.23;;;;;;;-1.28;100.00;60679.06;5112045;28;20449;-77
2022/01/22 09:58:49;;;;;;;3.43;1.97;;;;;;;-1.18;100.00;60689.63;5111930;28;20862;-76
2022/01/22 10:01:35;;;;;;;5.77;2.23;;;;;;;-1.07;100.00;60696.28;5111568;28;20509;-74
2022/01/22 10:04:05;;;;;;;3.70;2.10;;;;;;;-2.24;100.00;60575.03;5111857;28;20998;-75
2022/01/22 10:06:49;;;;;;;4.50;2.43;;;;;;;-0.81;100.00;60730.22;5111715;28;20445;-77
2022/01/22 10:09:34;;;;;;;5.30;2.33;;;;;;;-0.66;100.00;60741.13;5112827;28;20453;-76
2022/01/22 10:12:14;;;;;;;4.90;2.57;;;;;;;-1.11;100.00;60692.06;5098802;28;20444;-74
2022/01/22 10:15:18;;;;;;;4.70;2.30;;;;;;;-0.21;100.00;60791.25;5116223;28;20456;-76
2022/01/22 10:17:47;;;;;;;7.17;1.77;;;;;;;-0.21;100.00;60789.28;5115456;28;20953;-77
2022/01/22 10:20:38;;;;;;;2.27;1.83;;;;;;;-0.68;100.00;60741.50;5096718;28;20444;-75
2022/01/22 10:23:09;;;;;;;9.03;2.40;;;;;;;-1.92;100.00;60603.88;5109228;28;20508;-75
2022/01/22 10:25:42;;;;;;;5.20;2.43;;;;;;;0.08;100.00;60822.00;5115272;28;20484;-74
2022/01/22 10:28:16;;;;;;;2.50;2.07;;;;;;;0.51;100.00;60867.56;5115166;28;20520;-76
2022/01/22 10:30:47;;;;;;;5.23;2.10;;;;;;;0.39;100.00;60851.81;5114867;28;20460;-76
2022/01/22 10:33:23;;;;;;;3.33;1.97;;;;;;;0.33;100.00;60845.44;5115211;28;20792;-76
2022/01/22 10:35:52;;;;;;;3.47;2.17;;;;;;;-1.55;100.00;60642.47;5115361;28;20461;-77
2022/01/22 10:38:21;;;;;;;5.30;2.77;;;;;;;0.27;100.00;60839.63;5115119;28;20490;-77
2022/01/22 10:40:59;;;;;;;6.40;3.27;;;;;;;0.22;100.00;60841.31;5096425;28;20950;-75
2022/01/22 10:43:31;;;;;;;2.53;1.67;;;;;;;1.05;100.00;60921.25;5115378;28;20937;-75
2022/01/22 10:46:12;;;;;;;4.13;2.40;;;;;;;0.72;100.00;60889.84;5096889;28;21068;-76
2022/01/22 10:48:44;;;;;;;3.50;1.90;;;;;;;-0.58;100.00;60749.59;5114493;28;20460;-77
2022/01/22 10:51:12;;;;;;;3.03;2.10;;;;;;;0.70;100.00;60885.22;5114732;28;20862;-77
2022/01/22 10:53:44;;;;;;;7.23;2.60;;;;;;;0.81;100.00;60896.84;5114273;28;20453;-76
2022/01/22 10:56:17;;;;;;;3.53;1.90;;;;;;;1.39;100.00;60952.31;5115003;28;20433;-76
2022/01/22 10:58:56;;;;;;;6.40;2.77;;;;;;;0.58;100.00;60872.47;5115597;28;20788;-75
2022/01/22 11:01:34;;;;;;;3.80;1.97;;;;;;;1.36;100.00;60954.13;5115069;28;20525;-73
2022/01/22 11:04:08;;;;;;;6.47;2.87;;;;;;;1.55;100.00;60974.31;5114279;28;20475;-75
2022/01/22 11:06:37;;;;;;;4.37;2.50;;;;;;;1.22;100.00;60934.28;5114704;28;20515;-76
2022/01/22 11:11:53;;;;;;;4.30;2.20;;;;;;;-0.42;100.00;60769.03;5113853;28;20437;-74
2022/01/22 11:14:23;;;;;;;5.57;2.60;;;;;;;-0.23;100.00;60786.66;5114274;28;20516;-77
2022/01/22 11:16:52;;;;;;;4.27;2.33;;;;;;;-0.15;100.00;60785.66;5114101;28;20440;-76
2022/01/22 11:19:30;;;;;;;4.30;2.30;;;;;;;0.31;100.00;60843.84;5114140;28;21065;-77
2022/01/22 11:22:03;;;;;;;5.97;2.90;;;;;;;2.26;100.00;61044.66;5114192;28;20425;-77
2022/01/22 11:24:34;;;;;;;3.97;2.00;;;;;;;2.03;100.00;61024.72;5095995;28;20433;-78
2022/01/22 11:27:10;;;;;;;3.20;2.00;;;;;;;3.98;100.00;61228.41;5114237;28;20452;-77
2022/01/22 11:32:32;;;;;;;8.03;4.30;;;;;;;4.15;100.00;61244.50;5112932;28;20451;-76
2022/01/22 11:35:03;;;;;;;6.43;2.83;;;;;;;2.72;100.00;61097.50;5113743;28;20447;-76
2022/01/22 11:37:38;;;;;;;7.73;2.90;;;;;;;2.16;100.00;61036.53;5113936;28;20445;-76
2022/01/22 11:40:12;;;;;;;5.53;2.67;;;;;;;2.28;100.00;61048.75;5114351;28;20480;-77
2022/01/22 11:43:00;;;;;;;3.53;2.27;;;;;;;2.22;100.00;61045.44;5113596;28;20475;-77
2022/01/22 11:45:31;;;;;;;9.80;3.23;;;;;;;2.24;100.00;61047.00;5113855;28;20522;-76
2022/01/22 11:48:14;;;;;;;3.57;2.20;;;;;;;2.11;100.00;61028.19;5114086;28;20440;-76
2022/01/22 11:50:44;;;;;;;6.47;2.90;;;;;;;-0.18;100.00;60789.44;5113511;28;20447;-75
2022/01/22 11:53:29;;;;;;;3.63;2.00;;;;;;;0.73;100.00;60883.38;5095522;28;20465;-76
2022/01/22 11:56:27;;;;;;;4.10;2.17;;;;;;;-0.55;100.00;60747.75;5113620;28;20451;-77
2022/01/22 11:59:23;;;;;;;5.40;2.57;;;;;;;0.38;100.00;60851.28;5113516;28;20524;-75
2022/01/22 12:01:54;;;;;;;2.77;1.93;;;;;;;0.10;100.00;60821.63;5113799;28;20497;-76
2022/01/22 12:04:23;;;;;;;5.63;2.40;;;;;;;-0.06;100.00;60800.16;5113337;28;20463;-76
2022/01/22 12:07:12;;;;;;;6.50;2.50;;;;;;;-0.20;100.00;60784.81;5113391;28;20489;-77
2022/01/22 12:09:53;;;;;;;4.67;2.53;;;;;;;0.21;100.00;60828.25;5113731;28;20456;-76
2022/01/22 12:15:17;;;;;;;11.17;3.07;;;;;;;0.04;100.00;60820.25;5113402;28;20987;-76
2022/01/22 12:18:12;;;;;;;4.23;2.67;;;;;;;-0.18;100.00;60789.44;5113742;28;20433;-77
2022/01/22 12:23:58;;;;;;;4.53;2.93;;;;;;;0.37;100.00;60845.22;5113201;28;20493;-75
2022/01/22 12:27:09;;;;;;;4.97;3.07;;;;;;;-1.28;100.00;60676.56;5112970;28;20515;-77
2022/01/22 12:29:45;;;;;;;9.10;4.00;;;;;;;-1.22;100.00;60680.41;5113225;28;20903;-78
2022/01/22 12:32:30;;;;;;;7.27;3.67;;;;;;;0.27;100.00;60839.63;5112489;28;20436;-79
2022/01/22 12:35:08;;;;;;;7.67;3.60;;;;;;;-0.90;100.00;60716.75;5112896;28;20455;-77
2022/01/22 12:37:44;;;;;;;6.47;3.37;;;;;;;0.31;100.00;60838.84;5112840;28;20989;-77
2022/01/22 12:40:12;;;;;;;5.17;3.43;;;;;;;-1.05;100.00;60698.41;5112476;28;20440;-75
2022/01/22 12:43:03;;;;;;;8.43;3.63;;;;;;;-0.01;100.00;60809.94;5113673;28;20480;-77
2022/01/22 12:45:34;;;;;;;7.07;3.53;;;;;;;0.08;100.00;60818.97;5112736;28;20478;-76
2022/01/22 12:48:15;;;;;;;6.93;3.60;;;;;;;-0.57;100.00;60745.63;5112790;28;20426;-75
2022/01/22 12:50:44;;;;;;;4.80;2.53;;;;;;;-0.48;100.00;60755.69;5112104;28;20444;-77
2022/01/22 12:53:22;;;;;;;7.60;2.87;;;;;;;-0.50;100.00;60750.56;5112059;28;20473;-76
2022/01/22 12:58:33;;;;;;;3.70;2.00;;;;;;;-0.97;100.00;60706.88;5112862;28;20798;-78
2022/01/22 13:01:13;;;;;;;7.10;3.40;;;;;;;-1.78;100.00;60618.69;5112349;28;20435;-77
2022/01/22 13:03:45;;;;;;;4.47;2.53;;;;;;;-0.15;100.00;60790.13;5093957;28;20480;-77
2022/01/22 13:06:24;;;;;;;2.90;2.20;;;;;;;-1.20;100.00;60680.03;5110936;28;20476;-75
2022/01/22 13:08:55;;;;;;;4.60;2.30;;;;;;;-0.96;100.00;60710.41;5112274;28;20444;-77
2022/01/22 13:11:27;;;;;;;9.57;2.67;;;;;;;-1.09;100.00;60694.16;5112068;28;20456;-76
2022/01/22 13:13:58;;;;;;;4.47;2.57;;;;;;;1.22;100.00;60939.81;5112516;28;20871;-76
2022/01/22 13:16:28;;;;;;;5.37;2.73;;;;;;;0.91;100.00;60906.41;5112045;28;20441;-77
2022/01/22 13:19:02;;;;;;;4.50;2.57;;;;;;;1.59;100.00;60988.59;5112611;28;20469;-76